createdAt,value
2024-01-12T00:00:06.087Z,26.17
2024-01-12T00:02:39.429Z,24.20
2024-01-12T00:05:08.466Z,25.57
2024-01-12T00:07:35.598Z,26.50
2024-01-12T00:10:03.053Z,26.47
2024-01-12T00:12:30.093Z,27.27
2024-01-12T00:14:57.841Z,24.87
2024-01-12T00:17:25.377Z,25.13
2024-01-12T00:19:52.482Z,26.00
2024-01-12T00:22:19.703Z,26.73
2024-01-12T00:24:46.761Z,26.17
2024-01-12T00:27:14.090Z,27.27
2024-01-12T00:29:41.237Z,26.70
2024-01-12T00:32:08.420Z,27.50
2024-01-12T00:34:35.620Z,25.23
2024-01-12T00:37:02.705Z,28.13
2024-01-12T00:39:29.835Z,27.40
2024-01-12T00:41:56.919Z,25.87
2024-01-12T00:44:24.163Z,28.50
2024-01-12T00:46:52.770Z,28.90
2024-01-12T00:49:20.441Z,26.40
2024-01-12T00:51:48.285Z,25.67
2024-01-12T00:54:15.854Z,27.07
2024-01-12T00:56:43.016Z,28.10
2024-01-12T00:59:10.163Z,27.23
2024-01-12T01:01:37.362Z,27.17
2024-01-12T01:04:05.631Z,26.80
2024-01-12T01:06:32.729Z,26.53
2024-01-12T01:09:00.001Z,28.03
2024-01-12T01:11:27.139Z,25.00
2024-01-12T01:13:54.351Z,26.83
2024-01-12T01:16:21.817Z,26.83
2024-01-12T01:18:49.482Z,25.63
2024-01-12T01:21:16.668Z,28.97
2024-01-12T01:23:43.789Z,25.63
2024-01-12T01:26:10.934Z,29.97
2024-01-12T01:28:38.117Z,26.87
2024-01-12T01:31:05.361Z,28.83
2024-01-12T01:33:32.491Z,28.97
2024-01-12T01:35:59.696Z,29.03
2024-01-12T01:38:26.781Z,29.23
2024-01-12T01:40:53.902Z,30.10
2024-01-12T01:43:22.932Z,25.77
2024-01-12T01:45:50.410Z,29.90
2024-01-12T01:48:17.659Z,27.83
2024-01-12T01:50:44.896Z,23.33
2024-01-12T01:53:12.167Z,28.30
2024-01-12T01:55:39.381Z,28.57
2024-01-12T01:58:06.706Z,27.83
2024-01-12T02:00:33.936Z,25.90
2024-01-12T02:03:02.673Z,29.23
2024-01-12T02:05:31.706Z,27.23
2024-01-12T02:07:58.917Z,30.50
2024-01-12T02:10:26.568Z,32.63
2024-01-12T02:12:53.721Z,28.27
2024-01-12T02:15:21.713Z,28.87
2024-01-12T02:17:49.199Z,28.40
2024-01-12T02:20:16.453Z,26.90
2024-01-12T02:22:43.628Z,30.03
2024-01-12T02:25:11.220Z,27.83
2024-01-12T02:27:38.336Z,35.20
2024-01-12T02:30:06.377Z,47.07
2024-01-12T02:32:33.985Z,48.07
2024-01-12T02:35:01.084Z,56.70
2024-01-12T02:37:28.088Z,57.37
2024-01-12T02:39:55.187Z,49.80
2024-01-12T02:42:22.227Z,44.63
2024-01-12T02:44:49.393Z,36.17
2024-01-12T02:47:16.514Z,31.10
2024-01-12T02:49:44.565Z,32.40
2024-01-12T02:52:11.656Z,33.83
2024-01-12T02:54:38.915Z,29.90
2024-01-12T02:57:06.437Z,31.57
2024-01-12T02:59:33.535Z,32.47
2024-01-12T03:02:00.727Z,29.87
2024-01-12T03:04:27.807Z,32.67
2024-01-12T03:06:54.853Z,29.77
2024-01-12T03:09:23.625Z,28.40
2024-01-12T03:11:50.834Z,32.00
2024-01-12T03:14:18.690Z,32.60
2024-01-12T03:16:45.844Z,30.67
2024-01-12T03:19:13.025Z,33.53
2024-01-12T03:21:40.160Z,31.90
2024-01-12T03:24:07.305Z,32.73
2024-01-12T03:26:38.912Z,31.57
2024-01-12T03:29:06.314Z,32.83
2024-01-12T03:31:34.344Z,34.23
2024-01-12T03:34:03.044Z,35.13
2024-01-12T03:36:30.188Z,30.90
2024-01-12T03:38:57.443Z,34.37
2024-01-12T03:41:24.565Z,34.10
2024-01-12T03:43:51.639Z,30.33
2024-01-12T03:46:18.766Z,32.60
2024-01-12T03:48:46.965Z,33.33
2024-01-12T03:51:14.223Z,32.90
2024-01-12T03:53:41.382Z,35.00
2024-01-12T03:56:08.494Z,32.57
2024-01-12T03:58:38.749Z,33.50
2024-01-12T04:01:09.112Z,35.40
2024-01-12T04:03:36.328Z,31.57
2024-01-12T04:06:12.061Z,34.77
2024-01-12T04:08:39.625Z,32.40
2024-01-12T04:11:07.148Z,31.67
2024-01-12T04:13:34.351Z,32.77
2024-01-12T04:16:01.505Z,34.07
2024-01-12T04:18:28.673Z,31.07
2024-01-12T04:20:55.995Z,30.67
2024-01-12T04:23:23.116Z,33.57
2024-01-12T04:25:50.196Z,30.37
2024-01-12T04:28:17.550Z,35.00
2024-01-12T04:30:44.634Z,32.30
2024-01-12T04:33:11.776Z,32.93
2024-01-12T04:35:39.009Z,31.97
2024-01-12T04:38:05.988Z,35.23
2024-01-12T04:40:32.964Z,33.80
2024-01-12T04:43:00.032Z,35.37
2024-01-12T04:45:27.086Z,35.23
2024-01-12T04:47:54.183Z,35.97
2024-01-12T04:50:21.607Z,33.60
2024-01-12T04:52:49.753Z,34.87
2024-01-12T04:55:16.761Z,32.80
2024-01-12T04:57:43.853Z,33.00
2024-01-12T05:00:11.538Z,35.00
2024-01-12T05:02:38.884Z,31.03
2024-01-12T05:05:06.992Z,30.17
2024-01-12T05:07:34.024Z,27.57
2024-01-12T05:10:01.062Z,33.97
2024-01-12T05:12:28.299Z,32.00
2024-01-12T05:14:55.351Z,30.00
2024-01-12T05:17:24.188Z,29.77
2024-01-12T05:19:51.511Z,31.37
2024-01-12T05:22:18.629Z,30.23
2024-01-12T05:24:45.751Z,28.13
2024-01-12T05:27:12.932Z,31.80
2024-01-12T05:29:39.983Z,30.47
2024-01-12T05:32:07.182Z,29.40
2024-01-12T05:34:34.348Z,28.53
2024-01-12T05:37:01.478Z,28.50
2024-01-12T05:39:28.706Z,28.67
2024-01-12T05:41:55.854Z,28.53
2024-01-12T05:44:23.046Z,27.30
2024-01-12T05:46:50.142Z,29.07
2024-01-12T05:49:17.297Z,26.10
2024-01-12T05:51:44.448Z,26.10
2024-01-12T05:54:11.618Z,29.53
2024-01-12T05:56:38.922Z,27.60
2024-01-12T05:59:06.241Z,28.17
2024-01-12T06:01:33.599Z,28.47
2024-01-12T06:04:00.889Z,27.33
2024-01-12T06:06:28.007Z,26.87
2024-01-12T06:08:55.139Z,29.67
2024-01-12T06:11:22.262Z,28.47
2024-01-12T06:13:49.234Z,29.17
2024-01-12T06:16:16.346Z,28.73
2024-01-12T06:18:43.679Z,26.20
2024-01-12T06:21:11.066Z,28.77
2024-01-12T06:23:38.386Z,25.07
2024-01-12T06:26:05.873Z,27.80
2024-01-12T06:28:32.875Z,29.53
2024-01-12T06:31:00.431Z,27.07
2024-01-12T06:33:27.753Z,27.53
2024-01-12T06:35:54.992Z,27.70
2024-01-12T06:38:22.042Z,27.93
2024-01-12T06:40:49.101Z,31.30
2024-01-12T06:43:16.295Z,29.83
2024-01-12T06:45:43.801Z,27.90
2024-01-12T06:48:11.554Z,31.97
2024-01-12T06:50:38.718Z,24.60
2024-01-12T06:53:09.797Z,27.77
2024-01-12T06:55:38.103Z,28.93
2024-01-12T06:58:05.202Z,28.13
2024-01-12T07:00:33.214Z,25.90
2024-01-12T07:03:00.446Z,26.30
2024-01-12T07:05:27.657Z,27.87
2024-01-12T07:07:54.793Z,30.17
2024-01-12T07:10:22.412Z,27.07
2024-01-12T07:12:53.300Z,28.50
2024-01-12T07:15:21.651Z,30.20
2024-01-12T07:17:51.056Z,27.90
2024-01-12T07:20:19.008Z,31.90
2024-01-12T07:22:46.905Z,27.77
2024-01-12T07:25:13.983Z,29.17
2024-01-12T07:27:43.541Z,30.33
2024-01-12T07:30:11.790Z,28.13
2024-01-12T07:32:39.044Z,30.23
2024-01-12T07:35:06.449Z,27.30
2024-01-12T07:37:33.501Z,27.40
2024-01-12T07:40:00.481Z,25.73
2024-01-12T07:42:27.595Z,27.30
2024-01-12T07:44:55.824Z,26.80
2024-01-12T07:47:23.318Z,26.03
2024-01-12T07:49:50.508Z,27.87
2024-01-12T07:52:19.357Z,28.63
2024-01-12T07:54:48.315Z,28.23
2024-01-12T07:57:15.387Z,27.23
2024-01-12T07:59:42.449Z,29.47
2024-01-12T08:02:09.541Z,32.63
2024-01-12T08:04:39.375Z,30.03
2024-01-12T08:07:07.954Z,32.03
2024-01-12T08:09:35.277Z,29.07
2024-01-12T08:12:03.835Z,25.10
2024-01-12T08:14:31.119Z,23.53
2024-01-12T08:16:58.325Z,26.77
2024-01-12T08:19:25.366Z,28.20
2024-01-12T08:21:56.141Z,26.57
2024-01-12T08:24:24.140Z,25.80
2024-01-12T08:26:51.575Z,23.80
2024-01-12T08:29:18.967Z,24.03
2024-01-12T08:31:46.232Z,22.37
2024-01-12T08:34:13.554Z,27.70
2024-01-12T08:36:40.831Z,24.60
2024-01-12T08:39:08.152Z,22.97
2024-01-12T08:41:35.225Z,22.33
2024-01-12T08:44:02.281Z,19.00
2024-01-12T08:46:29.319Z,20.50
2024-01-12T08:48:56.646Z,19.97
2024-01-12T08:51:25.124Z,21.13
2024-01-12T08:53:52.491Z,39.70
2024-01-12T08:56:19.713Z,17.50
2024-01-12T08:58:46.813Z,20.23
2024-01-12T09:01:14.910Z,15.50
2024-01-12T09:03:42.245Z,13.57
2024-01-12T09:06:10.825Z,14.53
2024-01-12T09:08:38.351Z,11.60
2024-01-12T09:11:05.428Z,15.43
2024-01-12T09:13:32.570Z,16.13
2024-01-12T09:15:59.654Z,16.97
2024-01-12T09:18:26.832Z,15.73
2024-01-12T09:20:54.086Z,14.63
2024-01-12T09:23:21.176Z,14.47
2024-01-12T09:25:51.638Z,14.20
2024-01-12T09:28:19.457Z,15.50
2024-01-12T09:30:47.715Z,16.57
2024-01-12T09:33:15.793Z,17.03
2024-01-12T09:35:43.165Z,18.20
2024-01-12T09:38:10.267Z,17.40
2024-01-12T09:40:37.558Z,15.07
2024-01-12T09:43:13.652Z,16.43
2024-01-12T09:45:44.950Z,16.30
2024-01-12T09:48:13.013Z,14.37
2024-01-12T09:50:42.402Z,15.90
2024-01-12T09:53:09.633Z,15.33
2024-01-12T09:55:36.705Z,13.43
2024-01-12T09:58:05.733Z,14.20
2024-01-12T10:00:36.368Z,18.53
2024-01-12T10:03:04.286Z,20.03
2024-01-12T10:05:31.563Z,15.20
2024-01-12T10:07:58.793Z,12.87
2024-01-12T10:10:28.610Z,12.73
2024-01-12T10:12:56.143Z,13.63
2024-01-12T10:15:23.154Z,12.70
2024-01-12T10:17:53.117Z,14.03
2024-01-12T10:20:22.529Z,14.13
2024-01-12T10:22:57.786Z,13.53
2024-01-12T10:25:25.779Z,11.17
2024-01-12T10:27:59.466Z,12.33
2024-01-12T10:30:28.585Z,12.77
2024-01-12T10:32:55.778Z,12.47
2024-01-12T10:35:23.044Z,10.83
2024-01-12T10:37:50.822Z,9.07
2024-01-12T10:40:18.550Z,9.20
2024-01-12T10:42:50.339Z,9.30
2024-01-12T10:45:27.262Z,8.30
2024-01-12T10:48:03.913Z,8.70
2024-01-12T10:50:36.379Z,7.53
2024-01-12T10:53:15.067Z,9.03
2024-01-12T10:55:51.248Z,7.67
2024-01-12T10:58:19.724Z,9.77
2024-01-12T11:00:47.656Z,9.77
2024-01-12T11:03:18.328Z,8.60
2024-01-12T11:05:46.055Z,7.97
2024-01-12T11:08:13.687Z,6.10
2024-01-12T11:10:47.771Z,6.00
2024-01-12T11:13:17.809Z,6.73
2024-01-12T11:15:45.686Z,7.47
2024-01-12T11:18:12.975Z,6.77
2024-01-12T11:20:40.288Z,5.97
2024-01-12T11:23:09.926Z,5.63
2024-01-12T11:25:37.405Z,8.13
2024-01-12T11:28:04.722Z,7.37
2024-01-12T11:30:44.557Z,6.70
2024-01-12T11:33:12.107Z,6.57
2024-01-12T11:35:40.913Z,6.37
2024-01-12T11:38:13.119Z,8.80
2024-01-12T11:40:45.277Z,6.90
2024-01-12T11:43:19.788Z,6.53
2024-01-12T11:45:48.810Z,7.10
2024-01-12T11:48:16.798Z,7.70
2024-01-12T11:50:44.235Z,6.93
2024-01-12T11:53:11.289Z,6.33
2024-01-12T11:55:40.571Z,5.77
2024-01-12T11:58:07.617Z,5.87
2024-01-12T12:00:34.787Z,6.23
2024-01-12T12:03:01.900Z,5.83
2024-01-12T12:05:30.557Z,7.27
2024-01-12T12:07:57.888Z,6.53
2024-01-12T12:10:33.346Z,5.40
2024-01-12T12:15:53.243Z,25.57
2024-01-12T12:18:20.650Z,8.20
2024-01-12T12:20:49.291Z,7.47
2024-01-12T12:31:49.757Z,7.13
2024-01-12T12:34:18.237Z,7.13
2024-01-12T12:36:45.461Z,9.77
2024-01-12T12:39:12.714Z,14.57
2024-01-12T12:41:40.258Z,10.47
2024-01-12T12:44:07.461Z,7.87
2024-01-12T12:46:34.686Z,8.80
2024-01-12T12:49:02.023Z,8.73
2024-01-12T12:54:22.181Z,7.83
2024-01-12T12:56:50.647Z,8.93
2024-01-12T12:59:17.821Z,9.40
2024-01-12T13:01:44.951Z,8.10
2024-01-12T13:04:13.966Z,8.33
2024-01-12T13:06:43.883Z,7.53
2024-01-12T13:09:11.280Z,8.87
2024-01-12T13:11:38.414Z,8.17
2024-01-12T13:14:05.791Z,8.67
2024-01-12T13:16:33.246Z,8.83
2024-01-12T13:19:10.873Z,7.17
2024-01-12T13:21:45.379Z,6.87
2024-01-12T13:24:13.227Z,7.90
2024-01-12T13:26:40.389Z,6.87
2024-01-12T13:29:09.827Z,7.27
2024-01-12T13:31:43.269Z,7.60
2024-01-12T13:34:13.425Z,7.87
2024-01-12T13:36:45.795Z,6.93
2024-01-12T13:39:12.972Z,7.47
2024-01-12T13:41:41.267Z,8.30
2024-01-12T13:44:08.404Z,8.63
2024-01-12T13:46:35.520Z,9.17
2024-01-12T13:49:02.929Z,7.63
2024-01-12T13:51:30.266Z,8.47
2024-01-12T13:53:57.936Z,7.83
2024-01-12T13:56:24.984Z,8.63
2024-01-12T13:58:52.033Z,8.30
2024-01-12T14:01:19.117Z,8.20
2024-01-12T14:03:49.069Z,6.97
2024-01-12T14:06:16.872Z,7.67
2024-01-12T14:08:44.888Z,8.50
2024-01-12T14:11:12.904Z,7.70
2024-01-12T14:13:40.095Z,8.23
2024-01-12T14:16:07.781Z,7.47
2024-01-12T14:18:35.087Z,8.10
2024-01-12T14:21:02.206Z,9.03
2024-01-12T14:23:29.401Z,7.07
2024-01-12T14:25:56.581Z,8.77
2024-01-12T14:28:32.004Z,8.50
2024-01-12T14:31:02.388Z,8.73
2024-01-12T14:33:34.681Z,8.73
2024-01-12T14:36:06.155Z,7.47
2024-01-12T14:38:33.421Z,8.73
2024-01-12T14:41:00.481Z,7.50
2024-01-12T14:43:27.924Z,8.37
2024-01-12T14:45:55.013Z,8.07
2024-01-12T14:48:25.604Z,8.90
2024-01-12T14:50:53.340Z,8.53
2024-01-12T14:53:20.505Z,8.50
2024-01-12T14:55:48.516Z,9.17
2024-01-12T14:58:15.509Z,7.57
2024-01-12T15:00:42.704Z,6.67
2024-01-12T15:03:10.043Z,6.87
2024-01-12T15:05:37.989Z,6.70
2024-01-12T15:08:05.604Z,7.17
2024-01-12T15:10:32.784Z,6.90
2024-01-12T15:12:59.945Z,6.60
2024-01-12T15:15:27.560Z,7.57
2024-01-12T15:17:54.851Z,8.03
2024-01-12T15:20:22.273Z,7.47
2024-01-12T15:22:49.448Z,8.23
2024-01-12T15:25:16.609Z,8.53
2024-01-12T15:27:44.547Z,7.80
2024-01-12T15:30:12.245Z,8.53
2024-01-12T15:32:39.804Z,8.53
2024-01-12T15:35:07.584Z,8.67
2024-01-12T15:37:34.673Z,8.37
2024-01-12T15:40:02.016Z,9.43
2024-01-12T15:42:35.385Z,10.20
2024-01-12T15:45:09.662Z,10.53
2024-01-12T15:47:37.801Z,10.73
2024-01-12T15:50:05.962Z,13.40
2024-01-12T15:52:33.107Z,11.63
2024-01-12T15:55:00.248Z,14.17
2024-01-12T15:57:27.373Z,11.30
2024-01-12T15:59:54.531Z,12.80
2024-01-12T16:02:21.661Z,13.77
2024-01-12T16:07:43.933Z,12.20
2024-01-12T16:10:11.432Z,12.30
2024-01-12T16:12:38.542Z,11.30
2024-01-12T16:15:08.727Z,11.43
2024-01-12T16:17:36.486Z,12.60
2024-01-12T16:20:04.048Z,9.13
2024-01-12T16:22:31.247Z,9.23
2024-01-12T16:24:59.037Z,8.60
2024-01-12T16:27:27.967Z,9.93
2024-01-12T16:29:55.350Z,9.17
2024-01-12T16:32:22.558Z,11.83
2024-01-12T16:34:49.705Z,9.60
2024-01-12T16:37:16.829Z,11.20
2024-01-12T16:39:45.144Z,12.10
2024-01-12T16:42:13.134Z,10.70
2024-01-12T16:44:40.622Z,9.90
2024-01-12T16:47:07.692Z,11.17
2024-01-12T16:49:38.133Z,9.23
2024-01-12T16:52:05.761Z,9.30
2024-01-12T16:54:32.806Z,10.90
2024-01-12T16:57:00.023Z,10.33
2024-01-12T16:59:30.756Z,9.53
2024-01-12T17:01:57.840Z,10.80
2024-01-12T17:04:24.999Z,9.97
2024-01-12T17:06:55.955Z,11.20
2024-01-12T17:09:23.827Z,11.63
2024-01-12T17:11:51.123Z,13.80
2024-01-12T17:14:18.273Z,11.20
2024-01-12T17:16:47.451Z,11.93
2024-01-12T17:19:14.736Z,13.67
2024-01-12T17:21:41.894Z,15.50
2024-01-12T17:24:10.437Z,10.37
2024-01-12T17:26:39.572Z,12.03
2024-01-12T17:29:06.790Z,13.37
2024-01-12T17:31:34.006Z,13.00
2024-01-12T17:34:01.509Z,9.93
2024-01-12T17:36:28.591Z,10.73
2024-01-12T17:38:55.817Z,11.10
2024-01-12T17:41:24.725Z,13.50
2024-01-12T17:43:52.456Z,12.20
2024-01-12T17:46:19.835Z,13.37
2024-01-12T17:48:47.454Z,12.50
2024-01-12T17:51:16.890Z,11.80
2024-01-12T17:53:45.031Z,12.47
2024-01-12T17:56:12.951Z,12.00
2024-01-12T17:58:40.474Z,12.00
2024-01-12T18:01:08.404Z,11.80
2024-01-12T18:03:35.695Z,13.50
2024-01-12T18:06:03.900Z,15.45
2024-01-12T18:08:31.213Z,13.20
2024-01-12T18:10:58.322Z,14.07
2024-01-12T18:13:25.670Z,14.33
2024-01-12T18:15:52.840Z,12.43
2024-01-12T18:18:20.309Z,14.20
2024-01-12T18:20:47.646Z,13.33
2024-01-12T18:23:14.833Z,14.13
2024-01-12T18:25:41.875Z,14.83
2024-01-12T18:28:08.991Z,14.27
2024-01-12T18:30:36.143Z,13.30
2024-01-12T18:33:04.768Z,12.80
2024-01-12T18:35:32.293Z,13.40
2024-01-12T18:37:59.438Z,14.07
2024-01-12T18:40:26.505Z,14.50
2024-01-12T18:42:53.649Z,14.60
2024-01-12T18:45:20.744Z,13.70
2024-01-12T18:47:48.128Z,14.93
2024-01-12T18:50:15.317Z,17.57
2024-01-12T18:52:45.360Z,15.40
2024-01-12T18:55:12.361Z,14.33
2024-01-12T18:57:39.469Z,29.03
2024-01-12T19:00:07.341Z,22.63
2024-01-12T19:02:34.488Z,18.33
2024-01-12T19:05:01.744Z,18.30
2024-01-12T19:07:29.212Z,16.83
2024-01-12T19:09:56.360Z,15.07
2024-01-12T19:12:23.951Z,15.47
2024-01-12T19:14:51.173Z,15.57
2024-01-12T19:17:18.266Z,15.03
2024-01-12T19:19:45.976Z,14.70
2024-01-12T19:22:13.141Z,12.60
2024-01-12T19:24:45.129Z,15.47
2024-01-12T19:27:13.139Z,15.43
2024-01-12T19:29:40.347Z,15.17
2024-01-12T19:32:11.779Z,16.07
2024-01-12T19:34:42.595Z,16.37
2024-01-12T19:37:10.127Z,15.20
2024-01-12T19:39:37.825Z,14.03
2024-01-12T19:42:05.636Z,15.87
2024-01-12T19:44:32.775Z,16.60
2024-01-12T19:46:59.787Z,17.23
2024-01-12T19:49:27.215Z,18.70
2024-01-12T19:51:54.251Z,17.90
2024-01-12T19:54:21.340Z,18.63
2024-01-12T19:56:48.560Z,15.13
2024-01-12T19:59:16.872Z,16.17
2024-01-12T20:01:44.960Z,17.87
2024-01-12T20:04:12.556Z,18.60
2024-01-12T20:06:39.949Z,18.33
2024-01-12T20:09:07.232Z,16.93
2024-01-12T20:11:34.739Z,16.67
2024-01-12T20:14:02.112Z,18.03
2024-01-12T20:16:31.343Z,15.53
2024-01-12T20:18:59.922Z,22.80
2024-01-12T20:21:28.690Z,19.10
2024-01-12T20:23:55.988Z,18.23
2024-01-12T20:26:24.724Z,17.17
2024-01-12T20:28:52.352Z,17.40
2024-01-12T20:31:19.597Z,17.53
2024-01-12T20:33:47.246Z,22.43
2024-01-12T20:36:14.684Z,21.67
2024-01-12T20:38:41.787Z,18.00
2024-01-12T20:41:09.268Z,16.00
2024-01-12T20:43:36.325Z,16.80
2024-01-12T20:46:03.485Z,18.67
2024-01-12T20:48:30.810Z,16.50
2024-01-12T20:50:58.895Z,18.43
2024-01-12T20:53:26.078Z,18.57
2024-01-12T20:55:53.164Z,17.90
2024-01-12T20:58:20.401Z,16.43
2024-01-12T21:00:47.713Z,15.07
2024-01-12T21:03:15.034Z,17.63
2024-01-12T21:05:42.704Z,15.33
2024-01-12T21:08:09.876Z,16.17
2024-01-12T21:10:37.010Z,17.37
2024-01-12T21:13:04.230Z,18.10
2024-01-12T21:15:32.728Z,17.53
2024-01-12T21:18:00.588Z,18.57
2024-01-12T21:20:27.758Z,18.33
2024-01-12T21:22:54.813Z,17.57
2024-01-12T21:25:22.184Z,19.33
2024-01-12T21:27:49.227Z,18.20
2024-01-12T21:30:16.485Z,18.13
2024-01-12T21:32:43.850Z,18.93
2024-01-12T21:35:11.117Z,17.77
2024-01-12T21:37:38.192Z,16.53
2024-01-12T21:40:07.304Z,14.70
2024-01-12T21:42:34.419Z,17.33
2024-01-12T21:45:01.561Z,17.17
2024-01-12T21:47:28.923Z,19.07
2024-01-12T21:49:56.185Z,16.83
2024-01-12T21:52:23.238Z,17.90
2024-01-12T21:54:50.439Z,21.50
2024-01-12T21:57:17.544Z,20.43
2024-01-12T21:59:44.834Z,21.20
2024-01-12T22:02:12.050Z,23.30
2024-01-12T22:04:39.094Z,25.80
2024-01-12T22:07:06.400Z,21.73
2024-01-12T22:09:33.584Z,20.60
2024-01-12T22:12:00.764Z,27.53
2024-01-12T22:14:27.832Z,21.57
2024-01-12T22:16:56.028Z,21.07
2024-01-12T22:19:23.411Z,20.50
2024-01-12T22:21:51.024Z,20.40
2024-01-12T22:24:18.808Z,19.67
2024-01-12T22:26:46.024Z,32.03
2024-01-12T22:29:14.024Z,22.80
2024-01-12T22:31:41.198Z,23.07
2024-01-12T22:34:08.360Z,21.27
2024-01-12T22:36:35.879Z,19.33
2024-01-12T22:39:03.039Z,24.47
2024-01-12T22:41:30.124Z,36.87
2024-01-12T22:43:57.168Z,22.27
2024-01-12T22:46:24.284Z,20.83
2024-01-12T22:48:51.438Z,21.20
2024-01-12T22:51:18.557Z,21.20
2024-01-12T22:53:45.654Z,20.83
2024-01-12T22:56:14.015Z,24.07
2024-01-12T22:58:41.722Z,21.43
2024-01-12T23:01:08.842Z,21.40
2024-01-12T23:03:36.036Z,20.17
2024-01-12T23:06:03.593Z,22.00
2024-01-12T23:08:30.774Z,19.63
2024-01-12T23:10:57.812Z,21.87
2024-01-12T23:13:24.905Z,21.00
2024-01-12T23:15:52.036Z,20.27
2024-01-12T23:18:19.394Z,22.63
2024-01-12T23:20:46.620Z,22.30
2024-01-12T23:23:13.638Z,17.43
2024-01-12T23:25:40.627Z,16.53
2024-01-12T23:28:07.810Z,17.83
2024-01-12T23:30:35.139Z,17.70
2024-01-12T23:33:02.480Z,16.13
2024-01-12T23:35:29.788Z,19.90
2024-01-12T23:37:56.860Z,19.40
2024-01-12T23:40:23.937Z,15.90
2024-01-12T23:42:50.976Z,16.73
2024-01-12T23:45:18.069Z,18.10
2024-01-12T23:47:46.008Z,16.53
2024-01-12T23:50:13.642Z,17.30
2024-01-12T23:52:40.658Z,17.63
2024-01-12T23:55:11.224Z,17.43
2024-01-12T23:57:38.290Z,16.80
